• Join FlightAware (Why Join?)
  • Login
  • US Flag 
07:55PM EDT


 

Airport Tracker/Info


-or-


 

Live Flight TrackerFlight Track Log ✈ N24MT ✈ 20-Apr-2013 ✈ KEFD - KMLU

Flight Track Log - Related Links

Times and Time Zones

All times are in EDT time to prevent confusion due to time zone crossing. See the N24MT flight status page for this flight to view local times or setup timezone preferences in your user account.

Time Position Orientation Groundspeed Altitude Reporting Facility
EDT Latitude Longitude Course Direction KTS MPH feet Rate Location/Type
05:02PM 29.5822 -95.1467 96° East 92 106 1,200  Level Houston Center
05:03PM 29.5786 -95.1086 96° East 98 113 2,400 1,020 Climbing Houston Center
05:04PM 29.5842 -95.0928 68° East 103 119 3,000 480 Climbing Houston Center
05:04PM 29.5967 -95.0775 47° Northeast 134 154 2,900 -120 Descending Houston Center
05:05PM 29.6075 -95.0614 52° Northeast 122 140 2,900 60 Level Houston Center
05:05PM 29.6208 -95.0433 50° Northeast 136 157 3,000  Climbing Houston Center
05:06PM 29.6319 -95.0289 48° Northeast 131 151 2,900 -120 Descending Houston Center
05:07PM 29.6578 -94.9975 47° Northeast 135 155 2,900  Level Houston Center
05:07PM 29.6717 -94.9792 49° Northeast 132 152 2,900  Level Houston Center
05:08PM 29.6822 -94.9667 46° Northeast 133 153 2,900 240 Level Houston Center
05:08PM 29.6981 -94.9494 43° Northeast 127 146 3,200 660 Climbing Houston Center
05:09PM 29.7133 -94.9344 40° Northeast 129 148 3,600 660 Climbing Houston Center
05:09PM 29.7231 -94.9247 41° Northeast 117 135 3,900 240 Climbing Houston Center
05:10PM 29.7378 -94.9108 39° Northeast 122 140 3,900  Level Houston Center
05:10PM 29.7497 -94.8950 49° Northeast 131 151 3,900  Level Houston Center
05:11PM 29.7633 -94.8828 38° Northeast 123 142 3,900  Level Houston Center
05:11PM 29.7767 -94.8700 40° Northeast 123 142 3,900  Level Houston Center
05:12PM 29.7908 -94.8578 37° Northeast 125 144 3,900  Level Houston Center
05:12PM 29.8058 -94.8444 38° Northeast 128 147 3,900 60 Level Houston Center
05:13PM 29.8181 -94.8317 42° Northeast 126 145 4,000  Climbing Houston Center
05:13PM 29.8322 -94.8147 46° Northeast 129 148 3,900 180 Descending Houston Center
05:14PM 29.8458 -94.8036 35° Northeast 131 151 4,200 600 Climbing Houston Center
05:15PM 29.8614 -94.7894 38° Northeast 108 124 4,600 720 Climbing Houston Center
05:15PM 29.8736 -94.7772 41° Northeast 110 127 5,000 600 Climbing Houston Center
05:15PM 29.8844 -94.7672 39° Northeast 117 135 5,200 660 Climbing Houston Center
05:16PM 29.8986 -94.7531 41° Northeast 116 133 5,700 660 Climbing Houston Center
05:17PM 29.9111 -94.7372 48° Northeast 123 142 6,000 540 Climbing Houston Center
05:17PM 29.9239 -94.7242 42° Northeast 127 146 6,300 720 Climbing Houston Center
05:18PM 29.9361 -94.7125 40° Northeast 128 147 6,700 660 Climbing Houston Center
05:18PM 29.9500 -94.6969 44° Northeast 127 146 7,000 240 Climbing Houston Center
05:19PM 29.9628 -94.6850 39° Northeast 132 152 7,000  Level Houston Center
05:19PM 29.9808 -94.6672 40° Northeast 143 165 7,000  Level Houston Center
05:20PM 29.9953 -94.6517 43° Northeast 153 176 7,000  Level Houston Center
05:20PM 30.0125 -94.6344 41° Northeast 152 175 7,000  Level Houston Center
05:21PM 30.0278 -94.6186 42° Northeast 148 170 7,000  Level Houston Center
05:21PM 30.0500 -94.5983 38° Northeast 148 170 7,000  Level Houston Center
05:22PM 30.0606 -94.5878 41° Northeast 147 169 7,000  Level Houston Center
05:22PM 30.0814 -94.5683 39° Northeast 146 168 7,000  Level Houston Center
05:23PM 30.0911 -94.5572 45° Northeast 148 170 7,000  Level Houston Center
05:23PM 30.1122 -94.5361 41° Northeast 149 171 7,000  Level Houston Center
05:24PM 30.1217 -94.5267 41° Northeast 148 170 7,000 180 Level Houston Center
05:24PM 30.1433 -94.5056 40° Northeast 148 170 7,200 360 Climbing Houston Center
05:25PM 30.1542 -94.4936 44° Northeast 143 165 7,400 360 Climbing Houston Center
05:25PM 30.1728 -94.4781 36° Northeast 143 165 7,600 480 Climbing Houston Center
05:26PM 30.1850 -94.4653 42° Northeast 142 163 7,900 480 Climbing Houston Center
05:26PM 30.2025 -94.4483 40° Northeast 141 162 8,100 240 Climbing Houston Center
05:27PM 30.2158 -94.4347 41° Northeast 141 162 8,200 360 Climbing Houston Center
05:27PM 30.2378 -94.4114 43° Northeast 142 163 8,500 360 Climbing Houston Center
05:28PM 30.2461 -94.4017 45° Northeast 145 167 8,600 360 Climbing Houston Center
05:28PM 30.2675 -94.3786 43° Northeast 146 168 8,900 240 Climbing Houston Center
05:29PM 30.2767 -94.3711 35° Northeast 148 170 8,900 240 Level Houston Center
05:30PM 30.2992 -94.3475 42° Northeast 149 171 9,200 240 Climbing Houston Center
05:30PM 30.3089 -94.3356 47° Northeast 149 171 9,200  Level Houston Center
05:31PM 30.3311 -94.3136 40° Northeast 153 176 9,200  Level Houston Center
05:31PM 30.3433 -94.3019 39° Northeast 162 186 9,200  Level Houston Center
05:32PM 30.3650 -94.2786 43° Northeast 163 188 9,200  Level Houston Center
05:33PM 30.3992 -94.2458 40° Northeast 160 184 9,200  Level Houston Center
05:33PM 30.4139 -94.2294 44° Northeast 160 184 9,200  Level Houston Center
05:34PM 30.4403 -94.2047 39° Northeast 162 186 9,200  Level Houston Center
05:34PM 30.4506 -94.1956 38° Northeast 161 185 9,200  Level Houston Center
05:35PM 30.4742 -94.1692 44° Northeast 164 189 9,200  Level Houston Center
05:35PM 30.4847 -94.1594 38° Northeast 163 188 9,200  Level Houston Center
05:36PM 30.5089 -94.1356 40° Northeast 162 186 9,200  Level Houston Center
05:37PM 30.5425 -94.1000 42° Northeast 163 188 9,200  Level Houston Center
05:38PM 30.5758 -94.0675 40° Northeast 161 185 9,200  Level Houston Center
05:38PM 30.6075 -94.0364 40° Northeast 163 188 9,200  Level Houston Center
05:39PM 30.6125 -94.0325 34° Northeast 164 189 9,200  Level Houston Center
05:40PM 30.6392 -94.0025 44° Northeast 163 188 9,200  Level Houston Center
05:40PM 30.6456 -93.9975 34° Northeast 162 186 9,200  Level Houston Center
05:41PM 30.6750 -93.9683 40° Northeast 163 188 9,200  Level Houston Center
05:41PM 30.6867 -93.9556 43° Northeast 163 188 9,200  Level Houston Center
05:41PM 30.7067 -93.9369 39° Northeast 164 189 9,200  Level Houston Center
05:42PM 30.7222 -93.9211 41° Northeast 165 190 9,200  Level Houston Center
05:42PM 30.7403 -93.9028 41° Northeast 165 190 9,200  Level Houston Center
05:43PM 30.7567 -93.8875 39° Northeast 163 188 9,200  Level Houston Center
05:43PM 30.7758 -93.8661 44° Northeast 165 190 9,200  Level Houston Center
05:44PM 30.7906 -93.8522 39° Northeast 163 188 9,200  Level Houston Center
05:44PM 30.8114 -93.8297 43° Northeast 163 188 9,200  Level Houston Center
05:45PM 30.8244 -93.8169 40° Northeast 164 189 9,200  Level Houston Center
05:45PM 30.8431 -93.7981 41° Northeast 161 185 9,200  Level Houston Center
05:46PM 30.8586 -93.7828 40° Northeast 162 186 9,200  Level Houston Center
05:46PM 30.8786 -93.7614 43° Northeast 161 185 9,200  Level Houston Center
05:47PM 30.8917 -93.7478 42° Northeast 161 185 9,200  Level Houston Center
05:47PM 30.9122 -93.7272 41° Northeast 163 188 9,200  Level Houston Center
05:48PM 30.9253 -93.7139 41° Northeast 160 184 9,200  Level Houston Center
05:48PM 30.9478 -93.6906 42° Northeast 163 188 9,200  Level Houston Center
05:49PM 30.9667 -93.6719 40° Northeast 163 188 9,200  Level Houston Center
05:50PM 30.9794 -93.6589 41° Northeast 163 188 9,200  Level Houston Center
05:50PM 31.0017 -93.6381 39° Northeast 162 186 9,200  Level Houston Center
05:51PM 31.0150 -93.6219 46° Northeast 162 186 9,200  Level Houston Center
05:51PM 31.0347 -93.6014 42° Northeast 164 189 9,200  Level Houston Center
05:52PM 31.0486 -93.5878 40° Northeast 163 188 9,200  Level Houston Center
05:52PM 31.0697 -93.5672 40° Northeast 163 188 9,200  Level Houston Center
05:53PM 31.0842 -93.5508 44° Northeast 164 189 9,200  Level Houston Center
05:53PM 31.1031 -93.5322 40° Northeast 163 188 9,200  Level Houston Center
05:54PM 31.1197 -93.5142 43° Northeast 162 186 9,200  Level Houston Center
05:54PM 31.1369 -93.4972 40° Northeast 163 188 9,200  Level Houston Center
05:55PM 31.1511 -93.4800 46° Northeast 162 186 9,200  Level Houston Center
05:55PM 31.1706 -93.4619 38° Northeast 162 186 9,200  Level Houston Center
05:56PM 31.1867 -93.4456 41° Northeast 164 189 9,200  Level Houston Center
05:56PM 31.2119 -93.4194 41° Northeast 165 190 9,200  Level Houston Center
05:57PM 31.2200 -93.4086 49° Northeast 163 188 9,200  Level Houston Center
05:57PM 31.2450 -93.3828 41° Northeast 165 190 9,200  Level Houston Center
05:58PM 31.2556 -93.3717 42° Northeast 165 190 9,200  Level Houston Center
05:58PM 31.2764 -93.3525 38° Northeast 162 186 9,200  Level Houston Center
05:59PM 31.3169 -93.3078 43° Northeast 166 191 9,200  Level Houston Center
06:00PM 31.3514 -93.2728 41° Northeast 164 189 9,200  Level Houston Center
06:01PM 31.3864 -93.2375 41° Northeast 165 190 9,200  Level Houston Center
06:03PM 31.4269 -93.1942 42° Northeast 164 189 9,200  Level Houston Center
06:03PM 31.4564 -93.1669 38° Northeast 165 190 9,200 -60 Level Houston Center
06:05PM 31.4950 -93.1361 34° Northeast 170 196 9,100 -60 Descending Houston Center
06:06PM 31.5300 -93.1028 39° Northeast 163 188 9,100  Level Houston Center
06:07PM 31.5617 -93.0656 45° Northeast 162 186 9,100  Level Houston Center
06:08PM 31.6031 -93.0247 40° Northeast 162 186 9,100  Level Houston Center
06:09PM 31.6347 -92.9889 44° Northeast 158 182 9,100  Level Houston Center
06:10PM 31.6692 -92.9511 43° Northeast 160 184 9,100  Level Houston Center
06:11PM 31.7014 -92.9189 40° Northeast 160 184 9,100  Level Houston Center
06:12PM 31.7358 -92.8817 43° Northeast 159 183 9,100  Level Houston Center
06:13PM 31.7672 -92.8475 43° Northeast 159 183 9,100  Level Houston Center
06:14PM 31.8003 -92.8122 42° Northeast 160 184 9,100  Level Houston Center
06:15PM 31.8397 -92.7697 42° Northeast 162 186 9,100  Level Houston Center
06:16PM 31.8742 -92.7344 41° Northeast 163 188 9,100  Level Houston Center
06:17PM 31.9064 -92.6981 44° Northeast 161 185 9,100  Level Houston Center
06:18PM 31.9406 -92.6625 41° Northeast 162 186 9,100  Level Houston Center
06:19PM 31.9733 -92.6261 43° Northeast 163 188 9,100 -60 Level Houston Center
06:20PM 32.0111 -92.5950 35° Northeast 164 189 9,000 -60 Descending Houston Center
06:21PM 32.0442 -92.5583 43° Northeast 164 189 9,000  Level Houston Center
06:22PM 32.0783 -92.5225 42° Northeast 165 190 9,000  Level Houston Center
06:23PM 32.1103 -92.4872 43° Northeast 161 185 9,000  Level Houston Center
06:24PM 32.1422 -92.4511 44° Northeast 160 184 9,000  Level Houston Center
06:25PM 32.1803 -92.4072 44° Northeast 159 183 9,000  Level Houston Center
06:26PM 32.2133 -92.3722 42° Northeast 159 183 9,000  Level Houston Center
06:27PM 32.2453 -92.3367 43° Northeast 159 183 9,000  Level Houston Center
06:28PM 32.2775 -92.3000 44° Northeast 159 183 9,000 -240 Level Houston Center
06:29PM 32.3094 -92.2633 44° Northeast 159 183 8,600 -720 Descending Houston Center
06:30PM 32.3428 -92.2269 43° Northeast 161 185 7,600 -1,260 Descending Houston Center
06:31PM 32.3767 -92.1886 44° Northeast 164 189 6,100 -1,560 Descending Houston Center
06:32PM 32.4117 -92.1506 43° Northeast 168 193 4,500 -1,620 Descending Houston Center
06:34PM 32.4512 -92.0982 48° Northeast  Level FlightAware Approximate
06:41PM 32.5000 -92.0333 42° Northeast  Level FlightAware Approximate
06:42PM 32.5109 -92.0377 42° Northeast  Level Estimated
06:43PM 32.5109 -92.0377 42° Northeast  Level Estimated
06:44PM 32.5109 -92.0377 42° Northeast  Level Estimated
06:45PM 32.5109 -92.0377 42° Northeast  Level Estimated
06:46PM 32.5109 -92.0377 42° Northeast  Level Estimated